sensor_id;sensor_type;location;lat;lon;timestamp;temperature;humidity
19561;DHT22;9927;47.792;10.616;2023-06-26T00:00:31;15.50;99.90
19561;DHT22;9927;47.792;10.616;2023-06-26T00:02:59;15.60;99.90
19561;DHT22;9927;47.792;10.616;2023-06-26T00:05:27;15.50;99.90
19561;DHT22;9927;47.792;10.616;2023-06-26T00:07:55;15.50;99.90
19561;DHT22;9927;47.792;10.616;2023-06-26T00:10:22;15.50;99.90
19561;DHT22;9927;47.792;10.616;2023-06-26T00:12:49;15.50;99.90
19561;DHT22;9927;47.792;10.616;2023-06-26T00:15:16;15.50;99.90
19561;DHT22;9927;47.792;10.616;2023-06-26T00:17:44;15.50;99.90
19561;DHT22;9927;47.792;10.616;2023-06-26T00:20:12;15.50;99.90
19561;DHT22;9927;47.792;10.616;2023-06-26T00:22:39;15.30;99.90
19561;DHT22;9927;47.792;10.616;2023-06-26T00:25:08;15.30;99.90
19561;DHT22;9927;47.792;10.616;2023-06-26T00:27:35;15.40;99.90
19561;DHT22;9927;47.792;10.616;2023-06-26T00:30:03;15.40;99.90
19561;DHT22;9927;47.792;10.616;2023-06-26T00:32:30;15.40;99.90
19561;DHT22;9927;47.792;10.616;2023-06-26T00:34:57;15.40;99.90
19561;DHT22;9927;47.792;10.616;2023-06-26T00:37:25;15.40;99.90
19561;DHT22;9927;47.792;10.616;2023-06-26T00:39:52;15.30;99.90
19561;DHT22;9927;47.792;10.616;2023-06-26T00:42:19;15.20;99.90
19561;DHT22;9927;47.792;10.616;2023-06-26T00:44:46;15.20;99.90
19561;DHT22;9927;47.792;10.616;2023-06-26T00:47:15;15.20;99.90
19561;DHT22;9927;47.792;10.616;2023-06-26T00:49:43;15.20;99.90
19561;DHT22;9927;47.792;10.616;2023-06-26T00:52:10;15.20;99.90
19561;DHT22;9927;47.792;10.616;2023-06-26T00:54:37;15.10;99.90
19561;DHT22;9927;47.792;10.616;2023-06-26T00:57:05;15.10;99.90
19561;DHT22;9927;47.792;10.616;2023-06-26T00:59:32;15.00;99.90
19561;DHT22;9927;47.792;10.616;2023-06-26T01:01:59;15.00;99.90
19561;DHT22;9927;47.792;10.616;2023-06-26T01:04:27;15.00;99.90
19561;DHT22;9927;47.792;10.616;2023-06-26T01:07:02;15.00;99.90
19561;DHT22;9927;47.792;10.616;2023-06-26T01:09:31;14.80;99.90
19561;DHT22;9927;47.792;10.616;2023-06-26T01:11:58;14.80;99.90
19561;DHT22;9927;47.792;10.616;2023-06-26T01:14:26;14.80;99.90
19561;DHT22;9927;47.792;10.616;2023-06-26T01:16:53;14.50;99.90
19561;DHT22;9927;47.792;10.616;2023-06-26T01:19:27;14.60;99.90
19561;DHT22;9927;47.792;10.616;2023-06-26T01:22:21;14.60;99.90
19561;DHT22;9927;47.792;10.616;2023-06-26T01:25:23;14.60;99.90
19561;DHT22;9927;47.792;10.616;2023-06-26T01:27:56;14.60;99.90
19561;DHT22;9927;47.792;10.616;2023-06-26T01:30:25;14.60;99.90
19561;DHT22;9927;47.792;10.616;2023-06-26T01:32:53;14.60;99.90
19561;DHT22;9927;47.792;10.616;2023-06-26T01:35:21;14.60;99.90
19561;DHT22;9927;47.792;10.616;2023-06-26T01:37:48;14.60;99.90
19561;DHT22;9927;47.792;10.616;2023-06-26T01:40:15;14.60;99.90
19561;DHT22;9927;47.792;10.616;2023-06-26T01:42:42;14.60;99.90
19561;DHT22;9927;47.792;10.616;2023-06-26T01:45:14;14.50;99.90
19561;DHT22;9927;47.792;10.616;2023-06-26T01:47:46;14.50;99.90
19561;DHT22;9927;47.792;10.616;2023-06-26T01:50:22;14.50;99.90
19561;DHT22;9927;47.792;10.616;2023-06-26T01:53:01;14.50;99.90
19561;DHT22;9927;47.792;10.616;2023-06-26T01:55:41;14.50;99.90
19561;DHT22;9927;47.792;10.616;2023-06-26T01:58:10;14.50;99.90
19561;DHT22;9927;47.792;10.616;2023-06-26T02:00:38;14.40;99.90
19561;DHT22;9927;47.792;10.616;2023-06-26T02:03:06;14.40;99.90
19561;DHT22;9927;47.792;10.616;2023-06-26T02:05:36;14.40;99.90
19561;DHT22;9927;47.792;10.616;2023-06-26T02:08:03;14.30;99.90
19561;DHT22;9927;47.792;10.616;2023-06-26T02:10:31;14.30;99.90
19561;DHT22;9927;47.792;10.616;2023-06-26T02:12:58;14.30;99.90
19561;DHT22;9927;47.792;10.616;2023-06-26T02:15:25;14.30;99.90
19561;DHT22;9927;47.792;10.616;2023-06-26T02:17:53;14.30;99.90
19561;DHT22;9927;47.792;10.616;2023-06-26T02:20:20;14.30;99.90
19561;DHT22;9927;47.792;10.616;2023-06-26T02:22:47;14.30;99.90
19561;DHT22;9927;47.792;10.616;2023-06-26T02:27:43;14.30;99.90
19561;DHT22;9927;47.792;10.616;2023-06-26T02:30:10;14.30;99.90
19561;DHT22;9927;47.792;10.616;2023-06-26T02:32:38;14.20;99.90
19561;DHT22;9927;47.792;10.616;2023-06-26T02:35:06;14.20;99.90
19561;DHT22;9927;47.792;10.616;2023-06-26T02:37:34;14.20;99.90
19561;DHT22;9927;47.792;10.616;2023-06-26T02:40:01;14.20;99.90
19561;DHT22;9927;47.792;10.616;2023-06-26T02:42:28;14.10;99.90
19561;DHT22;9927;47.792;10.616;2023-06-26T02:44:55;14.10;99.90
19561;DHT22;9927;47.792;10.616;2023-06-26T02:47:23;14.10;99.90
19561;DHT22;9927;47.792;10.616;2023-06-26T02:49:50;14.10;99.90
19561;DHT22;9927;47.792;10.616;2023-06-26T02:52:17;14.10;99.90
19561;DHT22;9927;47.792;10.616;2023-06-26T02:54:46;14.10;99.90
19561;DHT22;9927;47.792;10.616;2023-06-26T02:57:13;14.10;99.90
19561;DHT22;9927;47.792;10.616;2023-06-26T02:59:41;13.90;99.90
19561;DHT22;9927;47.792;10.616;2023-06-26T03:02:08;14.00;99.90
19561;DHT22;9927;47.792;10.616;2023-06-26T03:04:36;14.00;99.90
19561;DHT22;9927;47.792;10.616;2023-06-26T03:07:04;14.00;99.90
19561;DHT22;9927;47.792;10.616;2023-06-26T03:09:31;14.00;99.90
19561;DHT22;9927;47.792;10.616;2023-06-26T03:11:59;14.10;99.90
19561;DHT22;9927;47.792;10.616;2023-06-26T03:14:26;14.10;99.90
19561;DHT22;9927;47.792;10.616;2023-06-26T03:16:53;14.10;99.90
19561;DHT22;9927;47.792;10.616;2023-06-26T03:19:25;14.10;99.90
19561;DHT22;9927;47.792;10.616;2023-06-26T03:21:52;14.10;99.90
19561;DHT22;9927;47.792;10.616;2023-06-26T03:24:19;14.10;99.90
19561;DHT22;9927;47.792;10.616;2023-06-26T03:26:46;14.20;99.90
19561;DHT22;9927;47.792;10.616;2023-06-26T03:29:13;14.10;99.90
19561;DHT22;9927;47.792;10.616;2023-06-26T03:31:41;14.10;99.90
19561;DHT22;9927;47.792;10.616;2023-06-26T03:34:08;14.10;99.90
19561;DHT22;9927;47.792;10.616;2023-06-26T03:36:35;14.10;99.90
19561;DHT22;9927;47.792;10.616;2023-06-26T03:39:02;14.10;99.90
19561;DHT22;9927;47.792;10.616;2023-06-26T03:41:31;14.10;99.90
19561;DHT22;9927;47.792;10.616;2023-06-26T03:43:58;14.20;99.90
19561;DHT22;9927;47.792;10.616;2023-06-26T03:46:27;14.20;99.90
19561;DHT22;9927;47.792;10.616;2023-06-26T03:48:54;14.20;99.90
19561;DHT22;9927;47.792;10.616;2023-06-26T03:51:22;14.30;99.90
19561;DHT22;9927;47.792;10.616;2023-06-26T03:53:49;14.30;99.90
19561;DHT22;9927;47.792;10.616;2023-06-26T03:56:16;14.40;99.90
19561;DHT22;9927;47.792;10.616;2023-06-26T03:58:43;14.50;99.90
19561;DHT22;9927;47.792;10.616;2023-06-26T04:01:11;14.30;99.90
19561;DHT22;9927;47.792;10.616;2023-06-26T04:03:38;14.20;99.90
19561;DHT22;9927;47.792;10.616;2023-06-26T04:06:05;14.20;99.90
19561;DHT22;9927;47.792;10.616;2023-06-26T04:08:33;14.30;99.90
19561;DHT22;9927;47.792;10.616;2023-06-26T04:11:00;14.40;99.90
19561;DHT22;9927;47.792;10.616;2023-06-26T04:13:27;14.50;99.90
19561;DHT22;9927;47.792;10.616;2023-06-26T04:15:54;14.70;99.90
19561;DHT22;9927;47.792;10.616;2023-06-26T04:18:22;14.80;99.90
19561;DHT22;9927;47.792;10.616;2023-06-26T04:21:09;14.90;99.90
19561;DHT22;9927;47.792;10.616;2023-06-26T04:23:39;15.10;99.90
19561;DHT22;9927;47.792;10.616;2023-06-26T04:26:07;15.10;99.90
19561;DHT22;9927;47.792;10.616;2023-06-26T04:28:35;15.20;99.90
19561;DHT22;9927;47.792;10.616;2023-06-26T04:31:03;15.40;99.90
19561;DHT22;9927;47.792;10.616;2023-06-26T04:33:31;15.40;99.90
19561;DHT22;9927;47.792;10.616;2023-06-26T04:35:58;15.60;99.90
19561;DHT22;9927;47.792;10.616;2023-06-26T04:38:26;15.70;99.90
19561;DHT22;9927;47.792;10.616;2023-06-26T04:40:54;15.80;99.90
19561;DHT22;9927;47.792;10.616;2023-06-26T04:43:21;15.90;99.90
19561;DHT22;9927;47.792;10.616;2023-06-26T04:45:48;16.00;99.90
19561;DHT22;9927;47.792;10.616;2023-06-26T04:48:15;16.20;99.90
19561;DHT22;9927;47.792;10.616;2023-06-26T04:50:43;16.20;99.90
19561;DHT22;9927;47.792;10.616;2023-06-26T04:53:10;16.30;99.90
19561;DHT22;9927;47.792;10.616;2023-06-26T04:55:37;16.40;99.90
19561;DHT22;9927;47.792;10.616;2023-06-26T04:58:06;16.50;99.90
19561;DHT22;9927;47.792;10.616;2023-06-26T05:00:33;16.70;99.90
19561;DHT22;9927;47.792;10.616;2023-06-26T05:03:03;16.80;99.90
19561;DHT22;9927;47.792;10.616;2023-06-26T05:05:31;17.00;99.90
19561;DHT22;9927;47.792;10.616;2023-06-26T05:07:58;17.10;99.90
19561;DHT22;9927;47.792;10.616;2023-06-26T05:10:25;17.30;99.90
19561;DHT22;9927;47.792;10.616;2023-06-26T05:12:52;17.40;99.90
19561;DHT22;9927;47.792;10.616;2023-06-26T05:15:19;17.60;99.90
19561;DHT22;9927;47.792;10.616;2023-06-26T05:17:47;17.70;99.90
19561;DHT22;9927;47.792;10.616;2023-06-26T05:20:14;17.90;99.90
19561;DHT22;9927;47.792;10.616;2023-06-26T05:22:41;17.90;99.90
19561;DHT22;9927;47.792;10.616;2023-06-26T05:25:09;18.00;99.90
19561;DHT22;9927;47.792;10.616;2023-06-26T05:27:38;18.20;99.90
19561;DHT22;9927;47.792;10.616;2023-06-26T05:30:06;18.40;99.90
19561;DHT22;9927;47.792;10.616;2023-06-26T05:32:34;18.60;99.90
19561;DHT22;9927;47.792;10.616;2023-06-26T05:35:03;18.70;99.90
19561;DHT22;9927;47.792;10.616;2023-06-26T05:37:33;18.80;99.90
19561;DHT22;9927;47.792;10.616;2023-06-26T05:40:01;19.20;99.90
19561;DHT22;9927;47.792;10.616;2023-06-26T05:42:30;20.00;99.90
19561;DHT22;9927;47.792;10.616;2023-06-26T05:44:58;21.10;99.90
19561;DHT22;9927;47.792;10.616;2023-06-26T05:47:25;22.10;99.90
19561;DHT22;9927;47.792;10.616;2023-06-26T05:49:53;22.60;99.90
19561;DHT22;9927;47.792;10.616;2023-06-26T05:52:20;23.30;99.90
19561;DHT22;9927;47.792;10.616;2023-06-26T05:54:48;24.90;99.90
19561;DHT22;9927;47.792;10.616;2023-06-26T05:57:15;25.00;99.90
19561;DHT22;9927;47.792;10.616;2023-06-26T05:59:43;25.50;99.90
19561;DHT22;9927;47.792;10.616;2023-06-26T06:02:11;26.50;99.90
19561;DHT22;9927;47.792;10.616;2023-06-26T06:04:39;28.10;97.70
19561;DHT22;9927;47.792;10.616;2023-06-26T06:07:06;28.10;97.70
19561;DHT22;9927;47.792;10.616;2023-06-26T06:09:34;28.60;94.70
19561;DHT22;9927;47.792;10.616;2023-06-26T06:12:01;29.20;92.70
19561;DHT22;9927;47.792;10.616;2023-06-26T06:14:30;29.70;90.70
19561;DHT22;9927;47.792;10.616;2023-06-26T06:16:58;30.20;88.30
19561;DHT22;9927;47.792;10.616;2023-06-26T06:19:25;30.30;86.00
19561;DHT22;9927;47.792;10.616;2023-06-26T06:21:53;30.40;79.00
19561;DHT22;9927;47.792;10.616;2023-06-26T06:24:20;30.00;78.60
19561;DHT22;9927;47.792;10.616;2023-06-26T06:26:47;29.70;74.70
19561;DHT22;9927;47.792;10.616;2023-06-26T06:29:15;29.50;77.40
19561;DHT22;9927;47.792;10.616;2023-06-26T06:31:42;29.60;74.90
19561;DHT22;9927;47.792;10.616;2023-06-26T06:34:09;29.70;75.50
19561;DHT22;9927;47.792;10.616;2023-06-26T06:36:37;30.20;72.70
19561;DHT22;9927;47.792;10.616;2023-06-26T06:39:04;30.70;70.60
19561;DHT22;9927;47.792;10.616;2023-06-26T06:41:31;30.90;68.50
19561;DHT22;9927;47.792;10.616;2023-06-26T06:43:58;31.10;66.40
19561;DHT22;9927;47.792;10.616;2023-06-26T06:46:25;31.10;67.40
19561;DHT22;9927;47.792;10.616;2023-06-26T06:48:54;31.20;66.90
19561;DHT22;9927;47.792;10.616;2023-06-26T06:51:21;31.80;65.20
19561;DHT22;9927;47.792;10.616;2023-06-26T06:53:48;32.10;63.20
19561;DHT22;9927;47.792;10.616;2023-06-26T06:56:16;31.90;65.00
19561;DHT22;9927;47.792;10.616;2023-06-26T06:58:43;31.90;61.90
19561;DHT22;9927;47.792;10.616;2023-06-26T07:01:13;32.10;63.50
19561;DHT22;9927;47.792;10.616;2023-06-26T07:03:40;32.20;62.10
19561;DHT22;9927;47.792;10.616;2023-06-26T07:06:08;32.30;61.50
19561;DHT22;9927;47.792;10.616;2023-06-26T07:08:36;32.40;59.40
19561;DHT22;9927;47.792;10.616;2023-06-26T07:11:04;32.40;58.80
19561;DHT22;9927;47.792;10.616;2023-06-26T07:13:31;32.60;58.00
19561;DHT22;9927;47.792;10.616;2023-06-26T07:15:58;32.30;58.00
19561;DHT22;9927;47.792;10.616;2023-06-26T07:18:25;32.60;58.60
19561;DHT22;9927;47.792;10.616;2023-06-26T07:20:55;33.10;58.40
19561;DHT22;9927;47.792;10.616;2023-06-26T07:23:22;33.30;58.20
19561;DHT22;9927;47.792;10.616;2023-06-26T07:25:49;33.50;57.70
19561;DHT22;9927;47.792;10.616;2023-06-26T07:28:17;33.80;57.00
19561;DHT22;9927;47.792;10.616;2023-06-26T07:30:44;33.90;55.90
19561;DHT22;9927;47.792;10.616;2023-06-26T07:33:11;34.00;55.30
19561;DHT22;9927;47.792;10.616;2023-06-26T07:35:39;34.30;56.40
19561;DHT22;9927;47.792;10.616;2023-06-26T07:38:06;33.90;55.20
19561;DHT22;9927;47.792;10.616;2023-06-26T07:40:33;34.30;55.30
19561;DHT22;9927;47.792;10.616;2023-06-26T07:43:00;34.60;55.00
19561;DHT22;9927;47.792;10.616;2023-06-26T07:45:28;34.40;52.90
19561;DHT22;9927;47.792;10.616;2023-06-26T07:47:56;34.20;54.50
19561;DHT22;9927;47.792;10.616;2023-06-26T07:50:23;33.70;53.70
19561;DHT22;9927;47.792;10.616;2023-06-26T07:52:50;33.90;53.90
19561;DHT22;9927;47.792;10.616;2023-06-26T07:55:20;33.30;55.50
19561;DHT22;9927;47.792;10.616;2023-06-26T07:57:47;33.60;54.90
19561;DHT22;9927;47.792;10.616;2023-06-26T08:00:15;33.30;55.20
19561;DHT22;9927;47.792;10.616;2023-06-26T08:02:43;33.70;55.50
19561;DHT22;9927;47.792;10.616;2023-06-26T08:05:10;34.00;53.30
19561;DHT22;9927;47.792;10.616;2023-06-26T08:07:38;34.10;53.00
19561;DHT22;9927;47.792;10.616;2023-06-26T08:10:06;33.90;54.00
19561;DHT22;9927;47.792;10.616;2023-06-26T08:12:33;34.10;53.40
19561;DHT22;9927;47.792;10.616;2023-06-26T08:15:01;34.20;53.60
19561;DHT22;9927;47.792;10.616;2023-06-26T08:17:29;34.20;52.60
19561;DHT22;9927;47.792;10.616;2023-06-26T08:19:57;34.50;51.80
19561;DHT22;9927;47.792;10.616;2023-06-26T08:22:24;34.90;52.80
19561;DHT22;9927;47.792;10.616;2023-06-26T08:24:51;35.70;50.60
19561;DHT22;9927;47.792;10.616;2023-06-26T08:27:19;35.80;51.00
19561;DHT22;9927;47.792;10.616;2023-06-26T08:29:46;36.00;51.10
19561;DHT22;9927;47.792;10.616;2023-06-26T08:32:13;36.40;50.50
19561;DHT22;9927;47.792;10.616;2023-06-26T08:34:41;35.80;50.10
19561;DHT22;9927;47.792;10.616;2023-06-26T08:37:08;35.90;50.20
19561;DHT22;9927;47.792;10.616;2023-06-26T08:39:38;35.80;50.60
19561;DHT22;9927;47.792;10.616;2023-06-26T08:42:05;35.90;49.70
19561;DHT22;9927;47.792;10.616;2023-06-26T08:44:33;36.20;48.80
19561;DHT22;9927;47.792;10.616;2023-06-26T08:47:00;36.40;48.90
19561;DHT22;9927;47.792;10.616;2023-06-26T08:52:27;36.60;47.40
19561;DHT22;9927;47.792;10.616;2023-06-26T08:54:58;36.30;48.20
19561;DHT22;9927;47.792;10.616;2023-06-26T08:57:26;36.50;49.60
19561;DHT22;9927;47.792;10.616;2023-06-26T08:59:55;37.00;47.90
19561;DHT22;9927;47.792;10.616;2023-06-26T09:02:22;37.00;47.40
19561;DHT22;9927;47.792;10.616;2023-06-26T09:04:50;37.30;47.80
19561;DHT22;9927;47.792;10.616;2023-06-26T09:07:17;37.40;48.00
19561;DHT22;9927;47.792;10.616;2023-06-26T09:09:46;37.00;48.00
19561;DHT22;9927;47.792;10.616;2023-06-26T09:12:13;36.90;47.40
19561;DHT22;9927;47.792;10.616;2023-06-26T09:14:41;35.90;47.70
19561;DHT22;9927;47.792;10.616;2023-06-26T09:17:08;35.90;48.30
19561;DHT22;9927;47.792;10.616;2023-06-26T09:19:37;35.70;48.50
19561;DHT22;9927;47.792;10.616;2023-06-26T09:22:11;35.70;48.40
19561;DHT22;9927;47.792;10.616;2023-06-26T09:24:41;35.30;49.20
19561;DHT22;9927;47.792;10.616;2023-06-26T09:27:09;35.20;49.70
19561;DHT22;9927;47.792;10.616;2023-06-26T09:29:38;35.00;49.80
19561;DHT22;9927;47.792;10.616;2023-06-26T09:32:08;34.60;50.50
19561;DHT22;9927;47.792;10.616;2023-06-26T09:34:36;34.40;51.30
19561;DHT22;9927;47.792;10.616;2023-06-26T09:37:04;34.20;50.50
19561;DHT22;9927;47.792;10.616;2023-06-26T09:39:32;34.40;50.60
19561;DHT22;9927;47.792;10.616;2023-06-26T09:41:59;34.30;50.60
19561;DHT22;9927;47.792;10.616;2023-06-26T09:44:33;33.70;52.10
19561;DHT22;9927;47.792;10.616;2023-06-26T09:47:02;33.20;51.80
19561;DHT22;9927;47.792;10.616;2023-06-26T09:49:31;33.20;52.20
19561;DHT22;9927;47.792;10.616;2023-06-26T09:52:00;33.00;52.40
19561;DHT22;9927;47.792;10.616;2023-06-26T09:54:28;32.60;52.50
19561;DHT22;9927;47.792;10.616;2023-06-26T09:57:10;32.50;53.30
19561;DHT22;9927;47.792;10.616;2023-06-26T09:59:38;32.60;54.40
19561;DHT22;9927;47.792;10.616;2023-06-26T10:02:07;32.40;54.40
19561;DHT22;9927;47.792;10.616;2023-06-26T10:04:35;32.30;54.80
19561;DHT22;9927;47.792;10.616;2023-06-26T10:07:05;32.10;53.90
19561;DHT22;9927;47.792;10.616;2023-06-26T10:09:35;31.90;53.40
19561;DHT22;9927;47.792;10.616;2023-06-26T10:12:11;31.50;54.00
19561;DHT22;9927;47.792;10.616;2023-06-26T10:14:41;31.30;54.30
19561;DHT22;9927;47.792;10.616;2023-06-26T10:17:16;31.30;54.90
19561;DHT22;9927;47.792;10.616;2023-06-26T10:19:44;31.70;55.10
19561;DHT22;9927;47.792;10.616;2023-06-26T10:22:15;31.60;55.30
19561;DHT22;9927;47.792;10.616;2023-06-26T10:24:45;31.80;54.40
19561;DHT22;9927;47.792;10.616;2023-06-26T10:27:19;31.80;55.00
19561;DHT22;9927;47.792;10.616;2023-06-26T10:29:50;31.80;56.00
19561;DHT22;9927;47.792;10.616;2023-06-26T10:32:18;31.90;55.10
19561;DHT22;9927;47.792;10.616;2023-06-26T10:34:47;31.60;56.20
19561;DHT22;9927;47.792;10.616;2023-06-26T10:37:15;31.60;56.60
19561;DHT22;9927;47.792;10.616;2023-06-26T10:39:52;31.80;56.40
19561;DHT22;9927;47.792;10.616;2023-06-26T10:42:38;31.90;55.70
19561;DHT22;9927;47.792;10.616;2023-06-26T10:45:15;30.80;55.70
19561;DHT22;9927;47.792;10.616;2023-06-26T10:47:46;30.80;56.10
19561;DHT22;9927;47.792;10.616;2023-06-26T10:50:34;30.80;57.60
19561;DHT22;9927;47.792;10.616;2023-06-26T11:03:46;31.40;57.20
19561;DHT22;9927;47.792;10.616;2023-06-26T11:06:20;31.40;56.80
19561;DHT22;9927;47.792;10.616;2023-06-26T11:08:52;31.50;57.80
19561;DHT22;9927;47.792;10.616;2023-06-26T11:11:54;31.50;58.10
19561;DHT22;9927;47.792;10.616;2023-06-26T11:14:25;31.50;58.30
19561;DHT22;9927;47.792;10.616;2023-06-26T11:16:56;31.40;57.30
19561;DHT22;9927;47.792;10.616;2023-06-26T11:19:26;31.60;57.20
19561;DHT22;9927;47.792;10.616;2023-06-26T11:22:04;31.60;56.50
19561;DHT22;9927;47.792;10.616;2023-06-26T11:24:33;31.30;56.40
19561;DHT22;9927;47.792;10.616;2023-06-26T11:27:02;31.40;57.50
19561;DHT22;9927;47.792;10.616;2023-06-26T11:29:30;31.40;57.20
19561;DHT22;9927;47.792;10.616;2023-06-26T11:32:02;31.50;57.60
19561;DHT22;9927;47.792;10.616;2023-06-26T11:34:33;31.40;57.00
19561;DHT22;9927;47.792;10.616;2023-06-26T11:37:00;31.70;58.00
19561;DHT22;9927;47.792;10.616;2023-06-26T11:39:28;32.10;57.20
19561;DHT22;9927;47.792;10.616;2023-06-26T11:41:56;32.20;55.80
19561;DHT22;9927;47.792;10.616;2023-06-26T11:44:23;32.20;56.70
19561;DHT22;9927;47.792;10.616;2023-06-26T11:46:54;32.20;57.30
19561;DHT22;9927;47.792;10.616;2023-06-26T11:49:23;32.40;57.50
19561;DHT22;9927;47.792;10.616;2023-06-26T11:51:53;32.30;56.50
19561;DHT22;9927;47.792;10.616;2023-06-26T11:54:26;31.90;55.30
19561;DHT22;9927;47.792;10.616;2023-06-26T11:56:56;31.50;56.10
19561;DHT22;9927;47.792;10.616;2023-06-26T11:59:24;31.30;56.70
19561;DHT22;9927;47.792;10.616;2023-06-26T12:01:52;31.30;57.10
19561;DHT22;9927;47.792;10.616;2023-06-26T12:04:20;31.00;56.30
19561;DHT22;9927;47.792;10.616;2023-06-26T12:06:50;30.90;56.70
19561;DHT22;9927;47.792;10.616;2023-06-26T12:09:21;31.00;57.50
19561;DHT22;9927;47.792;10.616;2023-06-26T12:11:52;31.00;58.40
19561;DHT22;9927;47.792;10.616;2023-06-26T12:14:21;31.00;57.00
19561;DHT22;9927;47.792;10.616;2023-06-26T12:16:49;31.10;59.50
19561;DHT22;9927;47.792;10.616;2023-06-26T12:19:16;31.10;57.10
19561;DHT22;9927;47.792;10.616;2023-06-26T12:21:45;30.90;56.00
19561;DHT22;9927;47.792;10.616;2023-06-26T12:24:17;30.90;57.40
19561;DHT22;9927;47.792;10.616;2023-06-26T12:26:46;30.90;56.50
19561;DHT22;9927;47.792;10.616;2023-06-26T12:29:15;30.90;56.40
19561;DHT22;9927;47.792;10.616;2023-06-26T12:31:45;31.00;56.70
19561;DHT22;9927;47.792;10.616;2023-06-26T12:34:14;31.10;57.00
19561;DHT22;9927;47.792;10.616;2023-06-26T12:36:47;31.30;56.30
19561;DHT22;9927;47.792;10.616;2023-06-26T12:39:20;31.20;56.20
19561;DHT22;9927;47.792;10.616;2023-06-26T12:41:57;31.10;54.50
19561;DHT22;9927;47.792;10.616;2023-06-26T12:44:29;31.00;55.30
19561;DHT22;9927;47.792;10.616;2023-06-26T12:46:58;30.90;55.40
19561;DHT22;9927;47.792;10.616;2023-06-26T12:49:36;31.00;56.10
19561;DHT22;9927;47.792;10.616;2023-06-26T12:52:14;31.00;55.10
19561;DHT22;9927;47.792;10.616;2023-06-26T12:54:44;31.10;54.90
19561;DHT22;9927;47.792;10.616;2023-06-26T12:57:14;31.10;55.70
19561;DHT22;9927;47.792;10.616;2023-06-26T12:59:41;31.20;54.70
19561;DHT22;9927;47.792;10.616;2023-06-26T13:02:10;31.20;55.50
19561;DHT22;9927;47.792;10.616;2023-06-26T13:04:41;31.20;52.40
19561;DHT22;9927;47.792;10.616;2023-06-26T13:07:08;31.20;52.90
19561;DHT22;9927;47.792;10.616;2023-06-26T13:09:36;30.90;53.90
19561;DHT22;9927;47.792;10.616;2023-06-26T13:12:05;31.10;54.50
19561;DHT22;9927;47.792;10.616;2023-06-26T13:14:33;31.20;54.10
19561;DHT22;9927;47.792;10.616;2023-06-26T13:17:01;31.10;55.30
19561;DHT22;9927;47.792;10.616;2023-06-26T13:19:29;31.20;54.20
19561;DHT22;9927;47.792;10.616;2023-06-26T13:21:56;31.30;53.50
19561;DHT22;9927;47.792;10.616;2023-06-26T13:24:23;31.40;54.30
19561;DHT22;9927;47.792;10.616;2023-06-26T13:26:51;31.50;54.60
19561;DHT22;9927;47.792;10.616;2023-06-26T13:29:19;31.60;53.40
19561;DHT22;9927;47.792;10.616;2023-06-26T13:31:46;31.50;54.00
19561;DHT22;9927;47.792;10.616;2023-06-26T13:34:24;31.40;52.60
19561;DHT22;9927;47.792;10.616;2023-06-26T13:36:51;31.50;53.00
19561;DHT22;9927;47.792;10.616;2023-06-26T13:39:19;31.70;53.10
19561;DHT22;9927;47.792;10.616;2023-06-26T13:41:46;32.00;53.70
19561;DHT22;9927;47.792;10.616;2023-06-26T13:44:13;32.30;52.90
19561;DHT22;9927;47.792;10.616;2023-06-26T13:47:00;32.50;52.80
19561;DHT22;9927;47.792;10.616;2023-06-26T13:49:27;31.70;52.50
19561;DHT22;9927;47.792;10.616;2023-06-26T13:51:55;31.70;53.90
19561;DHT22;9927;47.792;10.616;2023-06-26T13:56:50;31.50;53.40
19561;DHT22;9927;47.792;10.616;2023-06-26T13:59:17;31.50;54.30
19561;DHT22;9927;47.792;10.616;2023-06-26T14:01:47;31.60;55.40
19561;DHT22;9927;47.792;10.616;2023-06-26T14:04:15;31.70;54.30
19561;DHT22;9927;47.792;10.616;2023-06-26T14:06:42;31.50;53.50
19561;DHT22;9927;47.792;10.616;2023-06-26T14:09:09;31.50;54.60
19561;DHT22;9927;47.792;10.616;2023-06-26T14:11:37;31.80;54.30
19561;DHT22;9927;47.792;10.616;2023-06-26T14:14:04;31.80;54.70
19561;DHT22;9927;47.792;10.616;2023-06-26T14:16:34;32.30;54.80
19561;DHT22;9927;47.792;10.616;2023-06-26T14:19:02;32.20;54.80
19561;DHT22;9927;47.792;10.616;2023-06-26T14:21:29;31.90;52.90
19561;DHT22;9927;47.792;10.616;2023-06-26T14:23:56;31.70;53.30
19561;DHT22;9927;47.792;10.616;2023-06-26T14:26:23;31.40;54.20
19561;DHT22;9927;47.792;10.616;2023-06-26T14:28:51;31.30;55.10
19561;DHT22;9927;47.792;10.616;2023-06-26T14:31:18;31.00;55.80
19561;DHT22;9927;47.792;10.616;2023-06-26T14:33:45;30.70;56.10
19561;DHT22;9927;47.792;10.616;2023-06-26T14:36:13;30.30;55.60
19561;DHT22;9927;47.792;10.616;2023-06-26T14:38:40;30.00;56.50
19561;DHT22;9927;47.792;10.616;2023-06-26T14:41:08;29.50;57.80
19561;DHT22;9927;47.792;10.616;2023-06-26T14:43:36;29.50;58.20
19561;DHT22;9927;47.792;10.616;2023-06-26T14:46:03;29.20;58.50
19561;DHT22;9927;47.792;10.616;2023-06-26T14:48:31;29.20;59.90
19561;DHT22;9927;47.792;10.616;2023-06-26T14:50:58;29.10;61.30
19561;DHT22;9927;47.792;10.616;2023-06-26T14:53:27;29.10;62.60
19561;DHT22;9927;47.792;10.616;2023-06-26T14:55:54;29.00;62.90
19561;DHT22;9927;47.792;10.616;2023-06-26T14:58:22;29.00;64.20
19561;DHT22;9927;47.792;10.616;2023-06-26T15:00:49;29.10;64.90
19561;DHT22;9927;47.792;10.616;2023-06-26T15:03:17;29.10;65.20
19561;DHT22;9927;47.792;10.616;2023-06-26T15:05:44;29.20;65.90
19561;DHT22;9927;47.792;10.616;2023-06-26T15:08:11;29.50;65.70
19561;DHT22;9927;47.792;10.616;2023-06-26T15:10:39;29.50;65.90
19561;DHT22;9927;47.792;10.616;2023-06-26T15:13:06;29.70;66.40
19561;DHT22;9927;47.792;10.616;2023-06-26T15:15:34;29.80;66.30
19561;DHT22;9927;47.792;10.616;2023-06-26T15:18:02;29.80;67.00
19561;DHT22;9927;47.792;10.616;2023-06-26T15:20:29;30.30;66.80
19561;DHT22;9927;47.792;10.616;2023-06-26T15:22:56;30.60;64.00
19561;DHT22;9927;47.792;10.616;2023-06-26T15:25:25;30.60;64.70
19561;DHT22;9927;47.792;10.616;2023-06-26T15:27:52;30.80;65.50
19561;DHT22;9927;47.792;10.616;2023-06-26T15:30:19;31.50;64.60
19561;DHT22;9927;47.792;10.616;2023-06-26T15:32:46;31.80;64.10
19561;DHT22;9927;47.792;10.616;2023-06-26T15:35:14;31.70;62.50
19561;DHT22;9927;47.792;10.616;2023-06-26T15:37:41;31.60;61.70
19561;DHT22;9927;47.792;10.616;2023-06-26T15:40:09;31.30;62.10
19561;DHT22;9927;47.792;10.616;2023-06-26T15:42:50;31.10;62.80
19561;DHT22;9927;47.792;10.616;2023-06-26T15:45:17;31.00;64.60
19561;DHT22;9927;47.792;10.616;2023-06-26T15:47:45;30.90;65.20
19561;DHT22;9927;47.792;10.616;2023-06-26T15:50:13;30.80;63.70
19561;DHT22;9927;47.792;10.616;2023-06-26T15:52:40;30.50;65.00
19561;DHT22;9927;47.792;10.616;2023-06-26T15:55:07;30.50;64.10
19561;DHT22;9927;47.792;10.616;2023-06-26T15:57:36;30.70;65.10